createdAt,value
2023-04-22T00:05:52.982Z,96794.05
2023-04-22T00:15:56.488Z,96797.35
2023-04-22T00:26:01.286Z,96791.65
2023-04-22T00:36:05.148Z,96788.87
2023-04-22T00:46:09.694Z,96783.04
2023-04-22T00:56:16.331Z,96778.51
2023-04-22T01:06:20.707Z,96781.02
2023-04-22T01:16:26.045Z,96779.04
2023-04-22T01:26:29.613Z,96778.88
2023-04-22T01:36:33.942Z,96781.58
2023-04-22T01:46:40.025Z,96785.19
2023-04-22T01:56:53.979Z,96789.27
2023-04-22T02:06:57.553Z,96788.80
2023-04-22T02:17:04.065Z,96783.50
2023-04-22T02:27:08.906Z,96776.40
2023-04-22T02:37:12.031Z,96770.02
2023-04-22T02:47:15.561Z,96778.36
2023-04-22T02:57:18.705Z,96778.71
2023-04-22T03:07:22.004Z,96780.91
2023-04-22T03:17:26.228Z,96782.11
2023-04-22T03:27:29.589Z,96785.65
2023-04-22T03:37:36.287Z,96789.23
2023-04-22T03:47:39.792Z,96789.69
2023-04-22T03:57:51.839Z,96791.30
2023-04-22T04:07:56.723Z,96796.19
2023-04-22T04:18:01.565Z,96803.32
2023-04-22T04:28:09.559Z,96806.37
2023-04-22T04:38:14.591Z,96802.81
2023-04-22T04:48:19.990Z,96806.19
2023-04-22T04:58:27.572Z,96807.39
2023-04-22T05:08:43.144Z,96815.73
2023-04-22T05:18:46.585Z,96810.34
2023-04-22T05:28:50.503Z,96809.45
2023-04-22T05:38:54.327Z,96802.46
2023-04-22T05:48:57.774Z,96801.81
2023-04-22T05:59:21.541Z,96796.98
2023-04-22T06:09:25.868Z,96796.14
2023-04-22T06:19:28.966Z,96794.05
2023-04-22T06:29:32.275Z,96790.42
2023-04-22T06:39:35.628Z,96786.13
2023-04-22T06:49:46.119Z,96784.08
2023-04-22T07:00:08.746Z,96787.90
2023-04-22T07:10:14.763Z,96779.36
2023-04-22T07:20:23.616Z,96775.72
2023-04-22T07:30:26.668Z,96774.02
2023-04-22T07:40:29.920Z,96765.42
2023-04-22T07:50:32.978Z,96758.16
2023-04-22T08:00:36.402Z,96752.46
2023-04-22T08:10:39.596Z,96748.38
2023-04-22T08:20:47.315Z,96738.67
2023-04-22T08:30:51.044Z,96740.98
2023-04-22T08:40:56.699Z,96742.14
2023-04-22T08:51:00.518Z,96734.63
2023-04-22T09:01:04.119Z,96735.42
2023-04-22T09:11:07.362Z,96727.64
2023-04-22T09:21:12.987Z,96723.56
2023-04-22T09:31:18.361Z,96716.79
2023-04-22T09:41:28.725Z,96711.43
2023-04-22T09:51:32.213Z,96701.61
2023-04-22T10:01:37.339Z,96695.73
2023-04-22T10:11:41.642Z,96686.83
2023-04-22T10:21:46.821Z,96679.19
2023-04-22T10:32:03.873Z,96671.85
2023-04-22T10:42:12.967Z,96673.06
2023-04-22T10:52:29.677Z,96660.27
2023-04-22T11:02:32.925Z,96661.25
2023-04-22T11:12:37.629Z,96657.67
2023-04-22T11:23:06.808Z,96641.91
2023-04-22T11:33:11.284Z,96629.33
2023-04-22T11:43:14.851Z,96630.30
2023-04-22T11:53:21.266Z,96620.88
2023-04-22T12:03:31.654Z,96613.10
2023-04-22T12:13:37.892Z,96606.65
2023-04-22T12:23:52.885Z,96606.98
2023-04-22T12:33:56.631Z,96606.12
2023-04-22T12:43:59.815Z,96596.61
2023-04-22T12:54:02.992Z,96582.37
2023-04-22T13:04:06.538Z,96575.86
2023-04-22T13:14:10.035Z,96567.60
2023-04-22T13:24:13.166Z,96560.81
2023-04-22T13:44:33.382Z,96546.91
2023-04-22T13:54:36.321Z,96546.04
2023-04-22T14:04:39.686Z,96545.27
2023-04-22T14:14:43.000Z,96538.31
2023-04-22T14:24:46.181Z,96535.58
2023-04-22T14:34:49.389Z,96532.36
2023-04-22T14:44:52.610Z,96527.39
2023-04-22T14:54:55.699Z,96521.14
2023-04-22T15:04:59.043Z,96516.02
2023-04-22T15:15:02.267Z,96510.45
2023-04-22T15:25:10.000Z,96511.22
2023-04-22T15:35:14.300Z,96507.03
2023-04-22T15:45:18.088Z,96507.93
2023-04-22T15:55:21.310Z,96508.76
2023-04-22T16:05:25.228Z,96504.57
2023-04-22T16:15:28.645Z,96503.12
2023-04-22T16:25:35.413Z,96497.70
2023-04-22T16:35:39.688Z,96492.61
2023-04-22T16:45:43.382Z,96488.88
2023-04-22T16:55:47.196Z,96492.24
2023-04-22T17:05:50.373Z,96494.95
2023-04-22T17:15:59.167Z,96498.65
2023-04-22T17:26:02.238Z,96500.04
2023-04-22T17:36:05.730Z,96507.52
2023-04-22T17:46:09.364Z,96516.20
2023-04-22T17:56:12.615Z,96526.77
2023-04-22T18:06:15.763Z,96541.23
2023-04-22T18:16:18.935Z,96551.64
2023-04-22T18:26:22.441Z,96559.30
2023-04-22T18:36:25.622Z,96561.70
2023-04-22T18:46:28.811Z,96572.22
2023-04-22T18:56:32.982Z,96574.17
2023-04-22T19:06:35.983Z,96579.42
2023-04-22T19:16:39.206Z,96579.82
2023-04-22T19:26:42.310Z,96578.91
2023-04-22T19:36:45.545Z,96572.54
2023-04-22T19:46:48.686Z,96569.31
2023-04-22T19:56:51.901Z,96568.33
2023-04-22T20:06:55.490Z,96567.16
2023-04-22T20:16:58.812Z,96563.17
2023-04-22T20:27:02.392Z,96563.17
2023-04-22T20:37:09.733Z,96560.39
2023-04-22T20:47:13.850Z,96558.76
2023-04-22T20:57:16.933Z,96549.46
2023-04-22T21:07:58.582Z,96550.09
2023-04-22T21:18:03.178Z,96548.45
2023-04-22T21:28:07.675Z,96547.33
2023-04-22T21:38:11.028Z,96554.45
2023-04-22T21:48:14.141Z,96564.18
2023-04-22T21:58:17.182Z,96568.48
2023-04-22T22:08:20.761Z,96578.05
2023-04-22T22:18:23.970Z,96581.27
2023-04-22T22:28:26.977Z,96576.78
2023-04-22T22:38:30.048Z,96584.21
2023-04-22T22:48:33.397Z,96590.02
2023-04-22T22:59:08.581Z,96588.66
2023-04-22T23:09:11.658Z,96596.19
2023-04-22T23:19:17.185Z,96598.48
2023-04-22T23:29:20.721Z,96593.04
2023-04-22T23:39:24.197Z,96593.48
2023-04-22T23:49:27.582Z,96596.95
2023-04-22T23:59:30.910Z,96595.59
